Time;durP1;ratioP1;P1;durP2;ratioP2;P2;SDS_P1;SDS_P2;PMS_P1;PMS_P2;Temp;Humidity;BMP_temperature;BMP_pressure;BME280_temperature;BME280_humidity;BME280_pressure;Samples;Min_cycle;Max_cycle;Signal;HPM_P1;HPM_P2
2021/12/25 00:01:08;;;;;;;89.63;33.47;;;;;;;;;;5041606;28;20029;-73
2021/12/25 00:03:35;;;;;;;91.05;33.60;;;;;;;;;;5041818;28;20036;-72
2021/12/25 00:06:02;;;;;;;86.30;34.67;;;;;;;;;;5042490;28;20082;-72
2021/12/25 00:08:28;;;;;;;78.75;30.77;;;;;;;;;;5039262;28;20120;-72
2021/12/25 00:10:55;;;;;;;87.03;33.78;;;;;;;;;;5041848;28;20115;-72
2021/12/25 00:13:21;;;;;;;99.88;36.15;;;;;;;;;;5040164;28;20033;-71
2021/12/25 00:15:48;;;;;;;92.90;34.45;;;;;;;;;;5043715;28;20040;-71
2021/12/25 00:18:14;;;;;;;85.45;34.22;;;;;;;;;;5044365;28;20489;-72
2021/12/25 00:20:40;;;;;;;87.38;31.58;;;;;;;;;;5039946;28;20078;-72
2021/12/25 00:23:07;;;;;;;80.05;32.42;;;;;;;;;;5040660;28;20037;-73
2021/12/25 00:25:37;;;;;;;78.85;32.80;;;;;;;;;;5041854;28;20029;-71
2021/12/25 00:31:11;;;;;;;;;;;;;;;;;;5045366;28;20504;-71
2021/12/25 00:36:00;;;;;;;68.00;30.55;;;;;;;;;;5042409;28;20347;-71
2021/12/25 00:38:26;;;;;;;70.47;29.98;;;;;;;;;;5034704;28;20414;-72
2021/12/25 00:40:52;;;;;;;70.28;29.70;;;;;;;;;;5042279;28;20493;-73
2021/12/25 00:43:18;;;;;;;66.55;28.20;;;;;;;;;;5041286;28;20036;-73
2021/12/25 00:45:44;;;;;;;66.45;29.63;;;;;;;;;;5054779;28;20040;-73
2021/12/25 00:48:10;;;;;;;65.38;29.27;;;;;;;;;;5041224;28;20033;-71
2021/12/25 00:50:36;;;;;;;72.43;31.08;;;;;;;;;;5040450;28;20066;-74
2021/12/25 00:53:02;;;;;;;69.72;29.33;;;;;;;;;;5042482;28;20108;-73
2021/12/25 00:55:28;;;;;;;69.18;29.58;;;;;;;;;;5040638;28;20033;-71
2021/12/25 00:57:54;;;;;;;56.33;27.47;;;;;;;;;;5021958;28;1106228;-72
2021/12/25 01:00:20;;;;;;;60.00;28.73;;;;;;;;;;5041920;28;20605;-72
2021/12/25 01:02:47;;;;;;;61.78;29.67;;;;;;;;;;5043350;28;20039;-71
2021/12/25 01:05:15;;;;;;;59.90;29.17;;;;;;;;;;5058437;28;20029;-71
2021/12/25 01:07:41;;;;;;;61.33;29.58;;;;;;;;;;5043669;28;20031;-70
2021/12/25 01:10:11;;;;;;;59.85;31.90;;;;;;;;;;5040601;28;20510;-72
2021/12/25 01:12:53;;;;;;;65.00;30.55;;;;;;;;;;5044714;28;20032;-72
2021/12/25 01:15:25;;;;;;;70.25;33.95;;;;;;;;;;5032392;28;20535;-71
2021/12/25 01:25:58;;;;;;;;;;;;;;;;;;5042259;28;20036;-72
2021/12/25 01:49:15;;;;;;;51.60;26.02;;;;;;;;;;5039926;28;20143;-72
2021/12/25 01:51:42;;;;;;;48.53;26.15;;;;;;;;;;5040466;28;20110;-72
2021/12/25 01:54:08;;;;;;;48.22;25.05;;;;;;;;;;5043607;28;20098;-74
2021/12/25 01:56:34;;;;;;;51.05;26.25;;;;;;;;;;5038469;28;20112;-70
2021/12/25 01:59:00;;;;;;;52.08;26.67;;;;;;;;;;5036028;28;20045;-71
2021/12/25 02:01:26;;;;;;;52.15;26.33;;;;;;;;;;5044090;28;20081;-70
2021/12/25 02:03:52;;;;;;;52.58;26.75;;;;;;;;;;5041954;28;20056;-71
2021/12/25 02:06:18;;;;;;;50.28;23.92;;;;;;;;;;5042992;28;20037;-71
2021/12/25 02:08:44;;;;;;;48.53;25.92;;;;;;;;;;5026235;28;20087;-72
2021/12/25 02:11:11;;;;;;;48.03;26.10;;;;;;;;;;5040927;28;20470;-72
2021/12/25 02:13:38;;;;;;;49.08;24.38;;;;;;;;;;5041215;28;20075;-73
2021/12/25 02:16:11;;;;;;;44.80;24.42;;;;;;;;;;5037091;28;20498;-71
2021/12/25 02:21:27;;;;;;;58.72;26.02;;;;;;;;;;5041344;28;20371;-73
2021/12/25 02:23:53;;;;;;;51.63;26.50;;;;;;;;;;5039096;28;20445;-72
2021/12/25 02:26:20;;;;;;;49.75;25.35;;;;;;;;;;5038520;28;20810;-73
2021/12/25 02:28:47;;;;;;;55.50;26.75;;;;;;;;;;5040409;28;20178;-74
2021/12/25 02:31:14;;;;;;;46.67;23.90;;;;;;;;;;5042884;28;20036;-74
2021/12/25 02:33:40;;;;;;;52.72;25.85;;;;;;;;;;5039195;28;20028;-71
2021/12/25 02:36:07;;;;;;;53.55;26.38;;;;;;;;;;5038291;28;20037;-71
2021/12/25 02:38:34;;;;;;;51.70;26.35;;;;;;;;;;5024529;28;20033;-74
2021/12/25 02:41:00;;;;;;;48.45;24.88;;;;;;;;;;5037374;28;20435;-72
2021/12/25 02:43:26;;;;;;;52.88;27.75;;;;;;;;;;5041500;28;20032;-71
2021/12/25 02:45:56;;;;;;;53.00;25.73;;;;;;;;;;5056620;28;20037;-71
2021/12/25 02:48:22;;;;;;;55.65;26.65;;;;;;;;;;5037993;28;20073;-71
2021/12/25 02:50:49;;;;;;;58.40;27.20;;;;;;;;;;5039600;28;20057;-71
2021/12/25 02:53:15;;;;;;;58.50;27.50;;;;;;;;;;5041827;28;20129;-73
2021/12/25 02:55:43;;;;;;;53.97;25.33;;;;;;;;;;5038511;28;20040;-73
2021/12/25 02:58:09;;;;;;;60.40;29.35;;;;;;;;;;5039706;28;20042;-71
2021/12/25 03:00:37;;;;;;;64.78;32.05;;;;;;;;;;5038942;28;20048;-73
2021/12/25 03:03:05;;;;;;;64.38;30.55;;;;;;;;;;5038738;28;20136;-70
2021/12/25 03:05:31;;;;;;;67.45;28.50;;;;;;;;;;5037555;28;20521;-71
2021/12/25 03:07:57;;;;;;;64.20;29.38;;;;;;;;;;5039561;28;20025;-71
2021/12/25 03:10:24;;;;;;;72.78;31.27;;;;;;;;;;5041295;28;20056;-71
2021/12/25 03:13:05;;;;;;;69.15;32.08;;;;;;;;;;5038466;28;20063;-70
2021/12/25 03:15:41;;;;;;;66.38;30.65;;;;;;;;;;5038440;28;20162;-71
2021/12/25 03:18:11;;;;;;;71.60;30.55;;;;;;;;;;5054966;28;20032;-72
2021/12/25 03:20:40;;;;;;;79.60;33.13;;;;;;;;;;5038938;28;20033;-73
2021/12/25 03:23:06;;;;;;;74.00;31.05;;;;;;;;;;5036110;28;20090;-73
2021/12/25 03:25:32;;;;;;;81.30;34.03;;;;;;;;;;5042161;28;20029;-72
2021/12/25 03:27:58;;;;;;;77.63;33.03;;;;;;;;;;5043683;28;20380;-73
2021/12/25 03:30:25;;;;;;;81.05;33.47;;;;;;;;;;5044733;28;20048;-73
2021/12/25 03:32:51;;;;;;;84.70;35.33;;;;;;;;;;5040372;28;20113;-69
2021/12/25 03:35:17;;;;;;;75.25;34.60;;;;;;;;;;5041545;28;20030;-68
2021/12/25 03:37:44;;;;;;;77.55;32.63;;;;;;;;;;5044967;28;20033;-71
2021/12/25 03:40:11;;;;;;;78.65;34.25;;;;;;;;;;5044152;28;20375;-72
2021/12/25 03:42:37;;;;;;;70.20;32.63;;;;;;;;;;5039403;28;20025;-70
2021/12/25 03:45:03;;;;;;;83.28;34.90;;;;;;;;;;5042323;28;20423;-71
2021/12/25 03:47:37;;;;;;;74.13;32.47;;;;;;;;;;5044435;28;20032;-71
2021/12/25 03:53:24;;;;;;;74.68;33.67;;;;;;;;;;4998367;28;20125;-72
2021/12/25 03:58:36;;;;;;;79.03;34.55;;;;;;;;;;5045171;28;20094;-71
2021/12/25 04:01:22;;;;;;;73.07;30.60;;;;;;;;;;5060477;28;20031;-73
2021/12/25 04:04:02;;;;;;;80.10;34.17;;;;;;;;;;5044979;28;20219;-71
2021/12/25 04:06:29;;;;;;;74.80;31.33;;;;;;;;;;5040154;28;20029;-71
2021/12/25 04:08:56;;;;;;;81.60;32.83;;;;;;;;;;5041860;28;20052;-71
2021/12/25 04:11:28;;;;;;;80.80;33.63;;;;;;;;;;5043981;28;20036;-72
2021/12/25 04:13:55;;;;;;;77.43;32.55;;;;;;;;;;5039136;28;20064;-72
2021/12/25 04:16:21;;;;;;;70.18;31.23;;;;;;;;;;5042458;28;20159;-73
2021/12/25 04:18:47;;;;;;;70.28;29.65;;;;;;;;;;5039826;28;20503;-70
2021/12/25 04:21:13;;;;;;;71.10;31.70;;;;;;;;;;5043200;28;20094;-73
2021/12/25 04:23:42;;;;;;;77.28;31.98;;;;;;;;;;5043318;28;20160;-72
2021/12/25 04:26:08;;;;;;;75.82;31.67;;;;;;;;;;5042657;28;20026;-71
2021/12/25 04:28:51;;;;;;;75.97;31.88;;;;;;;;;;5044516;28;20104;-71
2021/12/25 05:03:48;;;;;;;34.75;17.73;;;;;;;;;;5040769;28;20090;-72
2021/12/25 05:06:14;;;;;;;43.40;18.10;;;;;;;;;;5045889;28;20028;-70
2021/12/25 05:08:40;;;;;;;34.47;16.35;;;;;;;;;;5040809;28;20032;-70
2021/12/25 05:11:06;;;;;;;36.33;15.02;;;;;;;;;;5055550;28;20029;-70
2021/12/25 05:13:32;;;;;;;36.88;15.38;;;;;;;;;;5039161;28;20108;-72
2021/12/25 05:16:00;;;;;;;35.72;17.67;;;;;;;;;;5037703;28;20043;-71
2021/12/25 05:18:26;;;;;;;35.30;17.10;;;;;;;;;;5040773;28;20025;-71
2021/12/25 05:20:52;;;;;;;32.00;15.43;;;;;;;;;;5044140;28;20483;-72
2021/12/25 05:23:18;;;;;;;29.35;13.98;;;;;;;;;;5045439;28;20037;-72
2021/12/25 05:25:44;;;;;;;29.48;14.25;;;;;;;;;;5057146;28;20044;-72
2021/12/25 05:28:12;;;;;;;27.90;13.35;;;;;;;;;;5044036;28;20497;-71
2021/12/25 05:30:40;;;;;;;25.40;12.25;;;;;;;;;;5039329;28;20052;-70
2021/12/25 05:33:07;;;;;;;26.13;12.30;;;;;;;;;;5042254;28;20383;-71
2021/12/25 05:35:33;;;;;;;25.17;11.68;;;;;;;;;;5038542;28;20529;-72
2021/12/25 05:38:00;;;;;;;21.17;10.60;;;;;;;;;;5039164;28;20276;-71
2021/12/25 05:40:26;;;;;;;19.42;10.20;;;;;;;;;;5037391;28;20539;-72
2021/12/25 05:42:52;;;;;;;18.67;9.30;;;;;;;;;;5045705;28;20048;-72
2021/12/25 05:45:18;;;;;;;18.75;8.63;;;;;;;;;;5040617;28;20418;-71
2021/12/25 05:47:44;;;;;;;13.45;6.70;;;;;;;;;;5042542;28;20097;-72
2021/12/25 05:50:10;;;;;;;12.48;6.32;;;;;;;;;;5036287;28;20025;-70
2021/12/25 05:52:36;;;;;;;14.00;5.22;;;;;;;;;;5042602;28;20112;-70
2021/12/25 05:55:03;;;;;;;10.15;5.65;;;;;;;;;;5042104;28;20474;-71
2021/12/25 05:57:29;;;;;;;9.80;4.50;;;;;;;;;;5040573;28;20439;-70
2021/12/25 05:59:55;;;;;;;11.82;5.10;;;;;;;;;;5037226;28;20060;-71
2021/12/25 06:02:21;;;;;;;5.68;3.78;;;;;;;;;;5041840;28;20060;-69
2021/12/25 06:04:47;;;;;;;9.45;4.45;;;;;;;;;;5039226;28;20118;-70
2021/12/25 06:07:13;;;;;;;8.88;4.25;;;;;;;;;;5038608;28;20079;-71
2021/12/25 06:09:40;;;;;;;9.15;3.97;;;;;;;;;;5042036;28;20036;-73
2021/12/25 06:12:10;;;;;;;8.07;3.58;;;;;;;;;;5040103;28;20033;-72
2021/12/25 06:14:36;;;;;;;6.00;3.22;;;;;;;;;;5041787;28;20053;-73
2021/12/25 06:17:02;;;;;;;9.43;3.65;;;;;;;;;;5042923;28;20041;-71
2021/12/25 06:19:28;;;;;;;8.73;3.78;;;;;;;;;;5040135;28;20110;-71
2021/12/25 06:21:54;;;;;;;6.68;3.60;;;;;;;;;;5041229;28;20056;-70
2021/12/25 06:24:21;;;;;;;15.00;4.53;;;;;;;;;;5038773;28;20114;-70
2021/12/25 06:26:47;;;;;;;16.00;3.95;;;;;;;;;;5034068;28;20037;-70
2021/12/25 06:29:19;;;;;;;15.88;4.82;;;;;;;;;;5042687;28;20079;-71
2021/12/25 06:32:04;;;;;;;6.38;2.72;;;;;;;;;;5039598;28;20071;-71
2021/12/25 06:34:30;;;;;;;6.28;2.78;;;;;;;;;;5039420;28;20060;-71
2021/12/25 06:36:56;;;;;;;6.80;2.83;;;;;;;;;;5044194;28;20029;-72
2021/12/25 06:39:22;;;;;;;5.38;2.65;;;;;;;;;;5040263;28;20108;-72
2021/12/25 06:41:49;;;;;;;7.78;2.67;;;;;;;;;;5040286;28;20482;-72
2021/12/25 06:44:15;;;;;;;9.07;2.88;;;;;;;;;;5045074;28;20070;-70
2021/12/25 06:46:41;;;;;;;6.45;3.08;;;;;;;;;;5043340;28;20031;-70
2021/12/25 06:49:07;;;;;;;15.40;5.97;;;;;;;;;;5040333;28;20033;-72
2021/12/25 06:51:35;;;;;;;11.98;3.92;;;;;;;;;;5040101;28;20082;-72
2021/12/25 06:54:01;;;;;;;4.55;2.50;;;;;;;;;;5040478;28;20021;-72
2021/12/25 06:56:27;;;;;;;13.75;4.65;;;;;;;;;;5039358;28;20033;-71
2021/12/25 06:58:53;;;;;;;8.77;3.15;;;;;;;;;;5037905;28;20152;-72
2021/12/25 07:01:19;;;;;;;9.23;3.00;;;;;;;;;;5038403;28;20155;-73
2021/12/25 07:03:45;;;;;;;6.97;2.80;;;;;;;;;;5060980;28;20040;-73
2021/12/25 07:06:12;;;;;;;8.55;3.47;;;;;;;;;;5046146;28;20545;-72
2021/12/25 07:08:37;;;;;;;7.07;3.00;;;;;;;;;;5040738;28;20080;-70
2021/12/25 07:11:04;;;;;;;5.07;2.70;;;;;;;;;;5042585;28;20056;-70
2021/12/25 07:13:30;;;;;;;9.35;3.20;;;;;;;;;;5030680;28;20435;-70
2021/12/25 07:15:56;;;;;;;7.53;3.45;;;;;;;;;;5042474;28;20031;-71
2021/12/25 07:18:22;;;;;;;6.47;2.42;;;;;;;;;;5041387;28;20482;-73
2021/12/25 07:20:50;;;;;;;12.90;4.25;;;;;;;;;;5045289;28;20029;-74
2021/12/25 07:23:16;;;;;;;5.03;2.40;;;;;;;;;;5042672;28;20027;-72
2021/12/25 07:25:42;;;;;;;5.40;2.70;;;;;;;;;;5043583;28;20064;-72
2021/12/25 07:28:09;;;;;;;7.53;2.72;;;;;;;;;;5045899;28;20395;-74
2021/12/25 07:30:35;;;;;;;4.53;2.22;;;;;;;;;;5039549;28;20482;-73
2021/12/25 07:33:01;;;;;;;4.68;3.00;;;;;;;;;;5041949;28;20075;-74
2021/12/25 07:35:27;;;;;;;7.82;3.05;;;;;;;;;;5042287;28;20033;-71
2021/12/25 07:37:54;;;;;;;6.13;3.00;;;;;;;;;;5044858;28;20066;-71
2021/12/25 07:40:20;;;;;;;5.43;2.75;;;;;;;;;;5045877;28;20035;-73
2021/12/25 07:42:46;;;;;;;4.88;2.40;;;;;;;;;;5043840;28;20039;-71
2021/12/25 07:45:12;;;;;;;4.97;2.67;;;;;;;;;;5043350;28;20112;-72
2021/12/25 07:47:45;;;;;;;6.15;2.72;;;;;;;;;;5042280;28;20116;-71
2021/12/25 07:50:11;;;;;;;4.30;2.75;;;;;;;;;;5041344;28;20029;-72
2021/12/25 07:52:37;;;;;;;8.48;2.10;;;;;;;;;;5059368;28;20128;-71
2021/12/25 07:55:04;;;;;;;7.88;2.38;;;;;;;;;;5045188;28;20072;-70
2021/12/25 07:57:30;;;;;;;8.60;2.65;;;;;;;;;;5040690;28;20494;-73
2021/12/25 07:59:56;;;;;;;4.85;2.45;;;;;;;;;;5044034;28;20053;-71
2021/12/25 08:02:22;;;;;;;6.03;2.90;;;;;;;;;;5040504;28;21417;-70
2021/12/25 08:04:48;;;;;;;4.55;1.88;;;;;;;;;;5043898;28;20029;-73
2021/12/25 08:07:14;;;;;;;7.88;2.45;;;;;;;;;;5044403;28;20481;-70
2021/12/25 08:09:42;;;;;;;3.42;1.98;;;;;;;;;;5042574;28;20482;-70
2021/12/25 08:12:09;;;;;;;7.97;2.10;;;;;;;;;;5056353;28;20029;-71
2021/12/25 08:14:35;;;;;;;5.05;2.60;;;;;;;;;;5038022;28;20041;-71
2021/12/25 08:17:02;;;;;;;4.32;2.35;;;;;;;;;;5037604;28;20029;-73
2021/12/25 08:19:28;;;;;;;5.97;2.25;;;;;;;;;;5042499;28;20527;-72
2021/12/25 08:21:54;;;;;;;5.10;2.70;;;;;;;;;;5040121;28;20060;-74
2021/12/25 08:24:20;;;;;;;4.78;2.42;;;;;;;;;;5059222;28;20101;-70
2021/12/25 08:26:48;;;;;;;4.50;2.35;;;;;;;;;;5031554;28;20029;-69
2021/12/25 08:29:14;;;;;;;5.53;2.58;;;;;;;;;;5040521;28;20040;-69
2021/12/25 08:31:43;;;;;;;4.97;2.65;;;;;;;;;;5040811;28;20036;-70
2021/12/25 08:34:10;;;;;;;5.97;2.92;;;;;;;;;;5043498;28;20029;-73
2021/12/25 08:36:36;;;;;;;6.40;2.45;;;;;;;;;;5044131;28;20105;-71
2021/12/25 08:39:03;;;;;;;4.80;2.80;;;;;;;;;;5044644;28;20024;-70
2021/12/25 08:41:31;;;;;;;8.57;2.83;;;;;;;;;;5042606;28;20032;-71
2021/12/25 08:44:04;;;;;;;6.18;3.17;;;;;;;;;;5039798;28;20033;-70
2021/12/25 08:46:45;;;;;;;6.38;3.28;;;;;;;;;;5044444;28;20141;-72
2021/12/25 08:49:17;;;;;;;5.85;2.83;;;;;;;;;;5053231;28;20037;-69
2021/12/25 08:51:46;;;;;;;7.03;3.47;;;;;;;;;;5042423;28;20429;-69
2021/12/25 08:54:12;;;;;;;6.28;3.20;;;;;;;;;;5041937;28;20029;-70
2021/12/25 08:56:39;;;;;;;7.20;3.47;;;;;;;;;;5038872;28;20025;-70
2021/12/25 08:59:05;;;;;;;7.50;3.03;;;;;;;;;;5040629;28;20364;-70
2021/12/25 09:01:31;;;;;;;7.45;3.67;;;;;;;;;;5042064;28;20044;-71
2021/12/25 09:03:59;;;;;;;6.05;3.05;;;;;;;;;;5057820;28;20037;-70
2021/12/25 09:06:26;;;;;;;6.25;3.20;;;;;;;;;;5038671;28;20037;-71
2021/12/25 09:08:52;;;;;;;5.32;2.78;;;;;;;;;;5054980;28;20026;-71
2021/12/25 09:11:18;;;;;;;6.38;3.03;;;;;;;;;;5039294;28;20056;-71
2021/12/25 09:13:44;;;;;;;4.18;2.45;;;;;;;;;;5042930;28;20468;-73
2021/12/25 09:16:10;;;;;;;7.80;3.05;;;;;;;;;;5038674;28;20032;-72
2021/12/25 09:18:36;;;;;;;7.68;2.80;;;;;;;;;;5041862;28;20017;-73
2021/12/25 09:21:02;;;;;;;5.20;2.60;;;;;;;;;;5039782;28;20029;-71
2021/12/25 09:23:28;;;;;;;6.78;2.58;;;;;;;;;;5044147;28;20040;-71
2021/12/25 09:25:54;;;;;;;7.22;2.58;;;;;;;;;;5041948;28;20055;-70
2021/12/25 09:28:20;;;;;;;4.03;1.92;;;;;;;;;;5038935;28;20025;-72
2021/12/25 09:30:46;;;;;;;3.00;2.03;;;;;;;;;;5040844;28;20035;-74
2021/12/25 09:33:13;;;;;;;3.38;2.03;;;;;;;;;;5042964;28;20052;-71
2021/12/25 09:35:39;;;;;;;4.72;2.10;;;;;;;;;;5041388;28;20028;-72
2021/12/25 09:38:05;;;;;;;4.82;2.35;;;;;;;;;;5039236;28;20020;-72
2021/12/25 09:40:31;;;;;;;3.10;2.08;;;;;;;;;;5035830;28;20033;-75
2021/12/25 09:42:57;;;;;;;3.38;1.73;;;;;;;;;;5035019;28;20028;-71
2021/12/25 09:45:24;;;;;;;3.17;1.83;;;;;;;;;;5037209;28;20025;-71
2021/12/25 09:47:50;;;;;;;5.68;1.80;;;;;;;;;;5039168;28;20033;-70
2021/12/25 09:50:16;;;;;;;3.97;1.70;;;;;;;;;;5042532;28;20060;-72
2021/12/25 09:52:43;;;;;;;4.60;1.52;;;;;;;;;;5041307;28;20119;-72
2021/12/25 09:55:10;;;;;;;4.53;1.95;;;;;;;;;;5041631;28;20465;-71
2021/12/25 09:57:37;;;;;;;4.10;2.00;;;;;;;;;;5042972;28;20111;-71
2021/12/25 10:00:11;;;;;;;5.55;2.15;;;;;;;;;;5035328;28;20466;-72
2021/12/25 10:02:45;;;;;;;3.33;1.60;;;;;;;;;;5040875;28;20086;-73
2021/12/25 10:05:11;;;;;;;2.92;1.27;;;;;;;;;;5038960;28;20448;-74
2021/12/25 10:07:37;;;;;;;1.80;1.08;;;;;;;;;;5042788;28;20047;-72
2021/12/25 10:10:05;;;;;;;4.07;1.67;;;;;;;;;;5054925;28;20468;-72
2021/12/25 10:12:37;;;;;;;3.38;1.50;;;;;;;;;;5041066;28;20482;-71
2021/12/25 10:15:04;;;;;;;2.45;1.30;;;;;;;;;;5039309;28;20530;-73
2021/12/25 10:17:31;;;;;;;2.53;1.50;;;;;;;;;;5038045;28;20033;-71
2021/12/25 10:20:02;;;;;;;4.45;1.50;;;;;;;;;;5034017;28;20029;-71
2021/12/25 10:22:28;;;;;;;;;;;;;;;;;;5038005;28;20079;-73
2021/12/25 10:25:11;;;;;;;1.77;1.25;;;;;;;;;;5041940;28;20350;-75
2021/12/25 10:27:39;;;;;;;2.15;1.25;;;;;;;;;;5034304;28;20031;-72
2021/12/25 10:30:06;;;;;;;6.10;1.20;;;;;;;;;;5035557;28;20028;-72
2021/12/25 10:32:37;;;;;;;4.78;1.40;;;;;;;;;;5040676;28;20040;-71
2021/12/25 10:35:12;;;;;;;2.38;1.20;;;;;;;;;;5041937;28;20029;-73
2021/12/25 10:37:40;;;;;;;2.15;1.27;;;;;;;;;;5053223;28;20013;-71
2021/12/25 10:40:17;;;;;;;3.10;1.45;;;;;;;;;;5048645;28;20028;-71
2021/12/25 10:42:45;;;;;;;2.05;1.05;;;;;;;;;;5040489;28;20047;-74
2021/12/25 10:45:13;;;;;;;2.08;1.15;;;;;;;;;;5046695;28;20029;-72
2021/12/25 10:47:39;;;;;;;4.55;1.95;;;;;;;;;;5044831;28;20140;-72
2021/12/25 10:50:14;;;;;;;2.92;1.30;;;;;;;;;;5034619;28;20119;-73
2021/12/25 10:52:45;;;;;;;1.88;1.00;;;;;;;;;;5050792;28;20112;-74
2021/12/25 10:55:14;;;;;;;2.17;1.20;;;;;;;;;;5032237;28;20032;-73
2021/12/25 10:57:41;;;;;;;2.47;1.52;;;;;;;;;;5034687;28;20029;-73
2021/12/25 11:00:27;;;;;;;2.70;1.45;;;;;;;;;;5043749;28;20021;-71
2021/12/25 11:02:58;;;;;;;6.40;1.40;;;;;;;;;;5041269;28;20548;-73
2021/12/25 11:05:29;;;;;;;4.32;1.45;;;;;;;;;;5039172;28;20035;-73
2021/12/25 11:08:01;;;;;;;3.83;1.10;;;;;;;;;;5049925;28;20062;-74
2021/12/25 11:10:29;;;;;;;4.05;1.60;;;;;;;;;;5049100;28;20069;-73
2021/12/25 11:12:56;;;;;;;1.27;0.80;;;;;;;;;;5046744;28;20032;-73
2021/12/25 11:15:23;;;;;;;2.13;0.90;;;;;;;;;;5043698;28;20038;-74
2021/12/25 11:17:52;;;;;;;6.10;1.10;;;;;;;;;;5047062;28;20062;-74
2021/12/25 11:20:32;;;;;;;1.75;1.10;;;;;;;;;;5038824;28;20026;-72
2021/12/25 11:23:00;;;;;;;1.75;1.17;;;;;;;;;;5032354;28;20405;-74
2021/12/25 11:25:30;;;;;;;3.70;1.23;;;;;;;;;;5033782;28;20814;-74
2021/12/25 11:27:57;;;;;;;3.33;1.33;;;;;;;;;;5032613;28;20026;-73
2021/12/25 11:30:24;;;;;;;2.35;1.17;;;;;;;;;;5031355;28;20033;-72
2021/12/25 11:32:50;;;;;;;3.13;1.13;;;;;;;;;;5034615;28;20036;-73
2021/12/25 11:35:18;;;;;;;3.60;1.33;;;;;;;;;;5034362;28;20025;-73
2021/12/25 11:37:45;;;;;;;3.15;1.25;;;;;;;;;;5050434;28;20029;-73
2021/12/25 11:40:12;;;;;;;1.65;1.20;;;;;;;;;;5034144;28;20091;-73
2021/12/25 11:42:48;;;;;;;4.13;2.05;;;;;;;;;;5038356;28;20106;-72
2021/12/25 11:45:18;;;;;;;4.93;1.10;;;;;;;;;;5032702;28;20021;-72
2021/12/25 11:47:44;;;;;;;1.23;1.00;;;;;;;;;;5044866;28;20108;-73
2021/12/25 11:50:18;;;;;;;2.15;0.90;;;;;;;;;;5051329;28;20024;-73
2021/12/25 11:52:55;;;;;;;4.75;0.90;;;;;;;;;;5036749;28;20081;-74
2021/12/25 11:55:36;;;;;;;4.88;1.13;;;;;;;;;;5050620;28;20520;-72
2021/12/25 11:58:37;;;;;;;2.05;1.02;;;;;;;;;;5045111;28;20294;-72
2021/12/25 12:01:23;;;;;;;1.20;1.00;;;;;;;;;;5048728;28;20045;-72
2021/12/25 12:03:54;;;;;;;3.55;1.05;;;;;;;;;;5037957;28;20040;-73
2021/12/25 12:06:20;;;;;;;;;;;;;;;;;;5046533;28;20780;-70
2021/12/25 12:08:55;;;;;;;1.85;1.00;;;;;;;;;;5032607;28;19909;-72
2021/12/25 12:11:23;;;;;;;2.60;1.48;;;;;;;;;;5047930;28;20036;-71
2021/12/25 12:14:09;;;;;;;3.58;1.10;;;;;;;;;;5034571;28;20059;-73
2021/12/25 12:16:36;;;;;;;6.13;1.15;;;;;;;;;;5037355;28;20032;-73
2021/12/25 12:19:02;;;;;;;4.25;1.10;;;;;;;;;;5041923;28;20021;-71
2021/12/25 12:21:35;;;;;;;5.25;1.15;;;;;;;;;;5042390;28;20037;-72
2021/12/25 12:24:37;;;;;;;3.67;1.17;;;;;;;;;;5036890;28;20021;-73
2021/12/25 12:27:04;;;;;;;1.40;0.82;;;;;;;;;;5030348;28;20122;-73
2021/12/25 12:29:39;;;;;;;1.65;0.80;;;;;;;;;;5048306;28;20112;-73
2021/12/25 12:32:06;;;;;;;5.28;2.35;;;;;;;;;;5040903;28;20025;-73
2021/12/25 12:34:40;;;;;;;3.97;1.00;;;;;;;;;;5038801;28;20040;-73
2021/12/25 12:37:18;;;;;;;7.30;1.35;;;;;;;;;;5048611;28;20025;-73
2021/12/25 12:39:58;;;;;;;2.75;0.90;;;;;;;;;;5045198;28;20114;-73
2021/12/25 12:42:48;;;;;;;5.55;1.27;;;;;;;;;;5047981;28;20025;-72
2021/12/25 12:45:16;;;;;;;1.50;1.10;;;;;;;;;;5029136;28;20041;-72
2021/12/25 12:48:02;;;;;;;2.42;1.00;;;;;;;;;;5035364;28;20029;-73
2021/12/25 12:50:32;;;;;;;5.47;1.67;;;;;;;;;;5029995;28;20034;-74
2021/12/25 12:53:00;;;;;;;6.85;1.38;;;;;;;;;;5035895;28;20067;-71
2021/12/25 12:55:29;;;;;;;1.70;1.13;;;;;;;;;;5043640;28;20538;-71
2021/12/25 12:58:10;;;;;;;10.43;1.23;;;;;;;;;;5032315;28;20127;-72
2021/12/25 13:00:36;;;;;;;3.08;0.80;;;;;;;;;;5047779;28;20037;-72
2021/12/25 13:03:02;;;;;;;2.50;1.05;;;;;;;;;;5054454;28;20048;-74
2021/12/25 13:05:33;;;;;;;2.60;0.98;;;;;;;;;;5034039;28;20648;-73
2021/12/25 13:08:01;;;;;;;1.52;0.85;;;;;;;;;;5043618;28;20124;-73
2021/12/25 13:13:17;;;;;;;5.10;1.67;;;;;;;;;;5007144;28;20526;-72
2021/12/25 13:15:45;;;;;;;2.30;1.08;;;;;;;;;;5037613;28;20056;-72
2021/12/25 13:18:12;;;;;;;1.92;0.90;;;;;;;;;;5044055;28;20025;-72
2021/12/25 13:20:38;;;;;;;4.40;1.15;;;;;;;;;;5043960;28;20044;-73
2021/12/25 13:23:14;;;;;;;4.70;0.95;;;;;;;;;;5044677;28;20029;-72
2021/12/25 13:25:47;;;;;;;1.20;0.90;;;;;;;;;;5041094;28;20028;-73
2021/12/25 13:28:13;;;;;;;4.22;0.95;;;;;;;;;;5044839;28;20036;-72
2021/12/25 13:30:43;;;;;;;2.08;0.93;;;;;;;;;;5045458;28;20061;-73
2021/12/25 13:33:13;;;;;;;3.22;1.17;;;;;;;;;;5041012;28;20314;-72
2021/12/25 13:35:40;;;;;;;2.30;1.00;;;;;;;;;;5039836;28;20497;-73
2021/12/25 13:38:07;;;;;;;1.95;1.00;;;;;;;;;;5030248;28;20423;-73
2021/12/25 13:40:33;;;;;;;3.42;1.00;;;;;;;;;;5029600;28;20068;-73
2021/12/25 13:43:10;;;;;;;3.83;1.15;;;;;;;;;;5027342;28;20467;-72
2021/12/25 13:45:37;;;;;;;2.42;1.10;;;;;;;;;;5038919;28;20453;-72
2021/12/25 13:48:03;;;;;;;5.15;1.00;;;;;;;;;;5038157;28;20205;-73
2021/12/25 13:50:30;;;;;;;3.65;1.20;;;;;;;;;;5039895;28;20039;-72
2021/12/25 13:52:58;;;;;;;4.75;1.30;;;;;;;;;;5030618;28;20139;-74
2021/12/25 13:55:29;;;;;;;2.08;1.13;;;;;;;;;;5037850;28;20136;-72
2021/12/25 13:58:03;;;;;;;3.63;1.20;;;;;;;;;;5040940;28;20048;-72
2021/12/25 14:00:31;;;;;;;3.83;1.35;;;;;;;;;;5033033;28;20128;-72
2021/12/25 14:02:59;;;;;;;2.30;1.42;;;;;;;;;;5035463;28;20017;-71
2021/12/25 14:05:26;;;;;;;10.68;5.03;;;;;;;;;;5027270;28;20117;-72
2021/12/25 14:07:52;;;;;;;10.77;5.70;;;;;;;;;;5032132;28;20029;-72
2021/12/25 14:10:20;;;;;;;3.58;1.77;;;;;;;;;;5038960;28;20044;-74
2021/12/25 14:12:50;;;;;;;12.57;4.82;;;;;;;;;;5045981;28;20147;-72
2021/12/25 14:15:18;;;;;;;2.95;1.23;;;;;;;;;;5039791;28;20079;-72
2021/12/25 14:17:44;;;;;;;3.72;1.35;;;;;;;;;;5032149;28;20037;-72
2021/12/25 14:20:27;;;;;;;7.82;3.70;;;;;;;;;;5048729;28;20525;-72
2021/12/25 14:23:06;;;;;;;7.25;3.58;;;;;;;;;;5029108;28;20026;-76
2021/12/25 14:25:34;;;;;;;12.68;5.82;;;;;;;;;;5029633;28;20033;-74
2021/12/25 14:28:09;;;;;;;9.05;4.18;;;;;;;;;;5043569;28;20044;-72
2021/12/25 14:30:41;;;;;;;3.15;1.60;;;;;;;;;;5046636;28;20027;-72
2021/12/25 14:33:12;;;;;;;4.18;1.70;;;;;;;;;;5040662;28;20033;-73
2021/12/25 14:35:38;;;;;;;;;;;;;;;;;;5029071;28;20044;-71
2021/12/25 14:38:04;;;;;;;3.92;1.40;;;;;;;;;;5027647;28;20042;-74
2021/12/25 14:40:36;;;;;;;5.60;2.22;;;;;;;;;;5046028;28;20091;-73
2021/12/25 14:43:04;;;;;;;6.90;2.88;;;;;;;;;;5036907;28;20087;-70
2021/12/25 14:45:39;;;;;;;8.25;1.98;;;;;;;;;;5045915;28;20124;-73
2021/12/25 14:48:06;;;;;;;6.57;4.00;;;;;;;;;;5032297;28;20033;-73
2021/12/25 14:50:34;;;;;;;3.05;1.30;;;;;;;;;;5039900;28;20415;-72
2021/12/25 14:53:19;;;;;;;4.53;2.13;;;;;;;;;;5034187;28;20044;-72
2021/12/25 14:55:50;;;;;;;3.60;1.60;;;;;;;;;;5045216;28;20037;-72
2021/12/25 14:58:23;;;;;;;3.33;1.60;;;;;;;;;;5033374;28;20486;-73
2021/12/25 15:01:09;;;;;;;11.73;4.88;;;;;;;;;;5031361;28;20087;-74
2021/12/25 15:03:35;;;;;;;21.92;10.52;;;;;;;;;;5044769;28;20025;-72
2021/12/25 15:06:02;;;;;;;24.42;12.20;;;;;;;;;;5027340;28;20474;-72
2021/12/25 15:08:30;;;;;;;9.25;4.13;;;;;;;;;;5044827;28;20639;-74
2021/12/25 15:11:03;;;;;;;15.82;8.90;;;;;;;;;;5029049;28;20120;-72
2021/12/25 15:13:29;;;;;;;7.88;3.95;;;;;;;;;;5028281;28;20041;-72
2021/12/25 15:15:57;;;;;;;16.23;6.80;;;;;;;;;;5029023;28;20100;-73
2021/12/25 15:18:27;;;;;;;7.55;3.80;;;;;;;;;;5041917;28;20055;-72
2021/12/25 15:21:13;;;;;;;2.95;1.73;;;;;;;;;;5027502;28;20041;-71
2021/12/25 15:23:40;;;;;;;3.10;1.60;;;;;;;;;;5030343;28;20030;-71
2021/12/25 15:26:10;;;;;;;5.50;1.60;;;;;;;;;;5031728;28;20052;-71
2021/12/25 15:28:38;;;;;;;4.28;1.67;;;;;;;;;;5046033;28;20033;-71
2021/12/25 15:31:14;;;;;;;3.20;1.63;;;;;;;;;;5041093;28;20039;-73
2021/12/25 15:33:54;;;;;;;4.95;1.92;;;;;;;;;;5042255;28;20029;-70
2021/12/25 15:36:21;;;;;;;6.97;2.00;;;;;;;;;;5044372;28;20092;-70
2021/12/25 15:38:47;;;;;;;5.97;2.00;;;;;;;;;;5042342;28;20107;-71
2021/12/25 15:41:14;;;;;;;3.72;1.80;;;;;;;;;;5044622;28;20032;-71
2021/12/25 15:43:40;;;;;;;8.13;2.20;;;;;;;;;;5049925;28;20032;-68
2021/12/25 15:46:06;;;;;;;11.40;2.28;;;;;;;;;;5049835;28;20499;-71
2021/12/25 15:48:34;;;;;;;9.90;2.97;;;;;;;;;;5049778;28;20029;-70
2021/12/25 15:51:00;;;;;;;4.72;1.95;;;;;;;;;;5050220;28;20032;-69
2021/12/25 15:53:26;;;;;;;23.45;14.77;;;;;;;;;;5038005;28;20051;-69
2021/12/25 15:55:52;;;;;;;26.98;16.83;;;;;;;;;;5042348;28;20030;-69
2021/12/25 15:58:19;;;;;;;9.05;4.90;;;;;;;;;;5038287;28;20523;-71
2021/12/25 16:00:46;;;;;;;10.02;4.43;;;;;;;;;;5029090;28;20456;-70
2021/12/25 16:03:13;;;;;;;7.57;3.33;;;;;;;;;;5032491;28;20491;-69